createdAt,value
2023-01-01T00:00:56.765Z,99045.41
2023-01-01T00:03:26.386Z,99031.31
2023-01-01T00:05:56.064Z,99037.03
2023-01-01T00:08:25.573Z,99041.75
2023-01-01T00:10:55.089Z,99046.66
2023-01-01T00:13:27.291Z,99042.16
2023-01-01T00:15:57.171Z,99041.03
2023-01-01T00:18:26.737Z,99058.69
2023-01-01T00:21:04.691Z,99051.84
2023-01-01T00:23:34.754Z,99067.81
2023-01-01T00:26:04.693Z,99060.31
2023-01-01T00:28:36.786Z,99054.38
2023-01-01T00:31:09.431Z,99054.94
2023-01-01T00:33:39.072Z,99059.41
2023-01-01T00:36:10.046Z,99061.19
2023-01-01T00:38:40.109Z,99041.31
2023-01-01T00:41:10.178Z,99063.06
2023-01-01T00:43:43.019Z,99066.25
2023-01-01T00:46:13.441Z,99075.06
2023-01-01T00:48:43.292Z,99071.00
2023-01-01T00:51:13.200Z,99062.00
2023-01-01T00:53:42.872Z,99056.34
2023-01-01T00:56:12.528Z,99059.41
2023-01-01T00:58:44.987Z,99076.69
2023-01-01T01:01:30.714Z,99082.50
2023-01-01T01:04:00.310Z,99072.78
2023-01-01T01:06:29.826Z,99088.13
2023-01-01T01:08:59.411Z,99073.31
2023-01-01T01:11:29.069Z,99059.75
2023-01-01T01:14:01.204Z,99061.97
2023-01-01T01:16:33.687Z,99074.97
2023-01-01T01:19:05.741Z,99086.72
2023-01-01T01:21:36.894Z,99059.19
2023-01-01T01:24:06.816Z,99059.19
2023-01-01T01:26:37.760Z,99063.28
2023-01-01T01:29:09.886Z,99081.19
2023-01-01T01:31:39.476Z,99045.00
2023-01-01T01:34:15.293Z,99081.38
2023-01-01T01:36:45.622Z,99070.03
2023-01-01T01:39:15.405Z,99057.88
2023-01-01T01:41:44.946Z,99062.06
2023-01-01T01:44:44.481Z,99083.25
2023-01-01T01:47:23.391Z,99072.09
2023-01-01T01:49:58.478Z,99089.56
2023-01-01T01:52:31.088Z,99084.22
2023-01-01T01:55:02.243Z,99089.56
2023-01-01T01:57:32.564Z,99088.50
2023-01-01T02:00:10.623Z,99098.03
2023-01-01T02:02:51.051Z,99105.84
2023-01-01T02:05:21.980Z,99097.88
2023-01-01T02:07:52.411Z,99091.44
2023-01-01T02:10:22.209Z,99099.44
2023-01-01T02:12:51.849Z,99091.50
2023-01-01T02:15:21.829Z,99088.09
2023-01-01T02:18:03.680Z,99071.50
2023-01-01T02:20:42.150Z,99086.81
2023-01-01T02:23:32.788Z,99088.78
2023-01-01T02:26:24.335Z,99073.31
2023-01-01T02:29:04.013Z,99089.06
2023-01-01T02:31:38.118Z,99082.34
2023-01-01T02:34:12.718Z,99083.13
2023-01-01T02:36:48.882Z,99077.19
2023-01-01T02:39:21.950Z,99082.03
2023-01-01T02:41:55.658Z,99090.94
2023-01-01T02:44:30.935Z,99082.22
2023-01-01T02:47:09.136Z,99086.34
2023-01-01T02:49:42.131Z,99070.00
2023-01-01T02:52:18.705Z,99063.78
2023-01-01T02:54:56.532Z,99074.44
2023-01-01T02:57:35.008Z,99067.66
2023-01-01T03:00:21.761Z,99075.47
2023-01-01T03:03:04.510Z,99073.97
2023-01-01T03:06:01.585Z,99083.66
2023-01-01T03:08:37.146Z,99096.34
2023-01-01T03:11:11.656Z,99090.78
2023-01-01T03:13:47.845Z,99103.88
2023-01-01T03:16:24.844Z,99100.38
2023-01-01T03:19:13.279Z,99100.06
2023-01-01T03:21:52.147Z,99111.56
2023-01-01T03:24:32.455Z,99113.91
2023-01-01T03:27:07.250Z,99107.00
2023-01-01T03:29:41.256Z,99109.56
2023-01-01T03:32:19.630Z,99111.69
2023-01-01T03:34:55.359Z,99107.88
2023-01-01T03:37:31.898Z,99124.22
2023-01-01T03:40:02.347Z,99105.50
2023-01-01T03:42:38.383Z,99107.06
2023-01-01T03:45:12.162Z,99100.16
2023-01-01T03:47:44.513Z,99104.84
2023-01-01T03:50:18.386Z,99112.81
2023-01-01T03:53:00.356Z,99099.44
2023-01-01T03:55:35.831Z,99103.81
2023-01-01T03:58:11.232Z,99116.47
2023-01-01T04:00:46.757Z,99126.06
2023-01-01T04:03:23.310Z,99116.75
2023-01-01T04:05:52.962Z,99116.09
2023-01-01T04:08:22.617Z,99118.09
2023-01-01T04:10:56.059Z,99110.19
2023-01-01T04:13:26.577Z,99112.84
2023-01-01T04:15:56.201Z,99120.19
2023-01-01T04:18:28.320Z,99109.28
2023-01-01T04:20:57.836Z,99117.94
2023-01-01T04:23:27.362Z,99115.56
2023-01-01T04:25:56.870Z,99115.25
2023-01-01T04:28:26.418Z,99098.47
2023-01-01T04:33:24.539Z,99106.50
2023-01-01T04:35:56.678Z,99118.56
2023-01-01T04:38:26.211Z,99105.59
2023-01-01T04:41:01.052Z,99099.16
2023-01-01T04:43:30.621Z,99102.53
2023-01-01T04:46:00.485Z,99111.56
2023-01-01T04:48:31.185Z,99092.94
2023-01-01T04:51:06.636Z,99110.72
2023-01-01T04:53:37.933Z,99120.97
2023-01-01T04:56:08.108Z,99136.28
2023-01-01T04:58:39.799Z,99124.22
2023-01-01T05:01:10.750Z,99149.06
2023-01-01T05:03:40.449Z,99141.84
2023-01-01T05:06:14.718Z,99155.66
2023-01-01T05:08:47.794Z,99142.66
2023-01-01T05:11:19.049Z,99161.69
2023-01-01T05:13:51.623Z,99138.34
2023-01-01T05:16:24.088Z,99158.31
2023-01-01T05:18:54.282Z,99137.47
2023-01-01T05:21:28.449Z,99149.94
2023-01-01T05:23:59.502Z,99172.03
2023-01-01T05:26:31.802Z,99149.28
2023-01-01T05:29:02.466Z,99156.81
2023-01-01T05:31:34.442Z,99153.63
2023-01-01T05:36:41.586Z,99161.19
2023-01-01T05:39:13.041Z,99176.94
2023-01-01T05:41:42.844Z,99170.59
2023-01-01T05:44:12.609Z,99177.16
2023-01-01T05:46:42.653Z,99161.59
2023-01-01T05:49:14.213Z,99177.34
2023-01-01T05:51:46.599Z,99181.03
2023-01-01T05:56:45.097Z,99199.28
2023-01-01T05:59:14.793Z,99180.03
2023-01-01T06:01:46.169Z,99200.31
2023-01-01T06:04:16.332Z,99178.91
2023-01-01T06:06:48.455Z,99184.66
2023-01-01T06:09:17.970Z,99187.72
2023-01-01T06:11:47.500Z,99157.47
2023-01-01T06:14:17.016Z,99179.16
2023-01-01T06:16:46.632Z,99183.66
2023-01-01T06:19:16.160Z,99180.47
2023-01-01T06:21:48.633Z,99184.53
2023-01-01T06:24:18.692Z,99180.00
2023-01-01T06:26:48.610Z,99196.75
2023-01-01T06:29:18.146Z,99189.22
2023-01-01T06:31:47.765Z,99194.38
2023-01-01T06:34:17.310Z,99198.94
2023-01-01T06:36:49.393Z,99199.41
2023-01-01T06:39:18.923Z,99200.38
2023-01-01T06:41:48.489Z,99213.84
2023-01-01T06:44:18.002Z,99207.72
2023-01-01T06:46:47.509Z,99191.38
2023-01-01T06:49:17.089Z,99223.63
2023-01-01T06:51:49.361Z,99225.41
2023-01-01T06:54:18.966Z,99211.06
2023-01-01T06:56:48.557Z,99233.81
2023-01-01T06:59:18.765Z,99182.75
2023-01-01T07:01:48.909Z,99218.50
2023-01-01T07:04:19.130Z,99236.84
2023-01-01T07:06:51.291Z,99242.41
2023-01-01T07:09:21.349Z,99238.53
2023-01-01T07:11:50.952Z,99236.00
2023-01-01T07:14:20.537Z,99264.97
2023-01-01T07:16:50.108Z,99258.31
2023-01-01T07:19:19.624Z,99267.78
2023-01-01T07:21:55.798Z,99261.09
2023-01-01T07:24:25.406Z,99271.69
2023-01-01T07:26:54.926Z,99294.56
2023-01-01T07:29:24.449Z,99290.72
2023-01-01T07:31:53.979Z,99282.72
2023-01-01T07:34:23.976Z,99286.88
2023-01-01T07:36:56.681Z,99294.19
2023-01-01T07:39:26.189Z,99313.84
2023-01-01T07:41:55.700Z,99308.53
2023-01-01T07:44:25.280Z,99320.94
2023-01-01T07:47:04.527Z,99318.78
2023-01-01T07:49:34.109Z,99317.41
2023-01-01T07:52:06.366Z,99335.00
2023-01-01T07:54:35.895Z,99334.50
2023-01-01T07:57:05.442Z,99329.28
2023-01-01T07:59:35.014Z,99333.97
2023-01-01T08:02:04.804Z,99339.94
2023-01-01T08:04:34.446Z,99343.09
2023-01-01T08:07:06.555Z,99339.41
2023-01-01T08:09:36.181Z,99354.81
2023-01-01T08:12:06.157Z,99342.94
2023-01-01T08:14:35.722Z,99363.56
2023-01-01T08:17:05.261Z,99372.88
2023-01-01T08:19:34.796Z,99379.50
2023-01-01T08:22:07.369Z,99396.16
2023-01-01T08:24:36.996Z,99387.47
2023-01-01T08:27:06.704Z,99382.13
2023-01-01T08:29:36.254Z,99384.84
2023-01-01T08:32:05.977Z,99380.72
2023-01-01T08:34:35.956Z,99362.66
2023-01-01T08:37:08.474Z,99369.59
2023-01-01T08:39:38.076Z,99374.34
2023-01-01T08:42:12.225Z,99390.31
2023-01-01T08:44:42.241Z,99400.25
2023-01-01T08:47:20.025Z,99400.25
2023-01-01T08:49:50.043Z,99397.66
2023-01-01T08:52:22.700Z,99399.06
2023-01-01T08:54:52.295Z,99393.06
2023-01-01T08:57:22.723Z,99396.91
2023-01-01T08:59:52.347Z,99414.00
2023-01-01T09:02:22.103Z,99400.22
2023-01-01T09:04:51.786Z,99394.44
2023-01-01T09:07:24.545Z,99402.84
2023-01-01T09:09:54.087Z,99394.19
2023-01-01T09:12:24.211Z,99386.47
2023-01-01T09:14:53.724Z,99390.81
2023-01-01T09:17:25.323Z,99395.41
2023-01-01T09:19:54.973Z,99401.69
2023-01-01T09:22:27.084Z,99387.28
2023-01-01T09:24:56.664Z,99404.78
2023-01-01T09:27:26.185Z,99402.69
2023-01-01T09:29:55.764Z,99401.16
2023-01-01T09:32:25.766Z,99396.94
2023-01-01T09:34:56.807Z,99421.84
2023-01-01T09:37:28.925Z,99423.22
2023-01-01T09:39:58.583Z,99435.97
2023-01-01T09:42:38.510Z,99438.31
2023-01-01T09:45:26.159Z,99432.81
2023-01-01T09:47:59.660Z,99455.88
2023-01-01T09:50:37.251Z,99446.53
2023-01-01T09:53:16.222Z,99468.22
2023-01-01T09:55:51.314Z,99462.53
2023-01-01T09:58:23.889Z,99472.88
2023-01-01T10:00:56.376Z,99481.84
2023-01-01T10:03:38.556Z,99477.13
2023-01-01T10:06:21.388Z,99479.59
2023-01-01T10:09:05.134Z,99481.97
2023-01-01T10:11:42.847Z,99476.75
2023-01-01T10:14:21.042Z,99473.03
2023-01-01T10:16:55.069Z,99480.16
2023-01-01T10:19:31.624Z,99472.88
2023-01-01T10:22:10.849Z,99488.84
2023-01-01T10:24:47.553Z,99480.72
2023-01-01T10:27:29.031Z,99479.00
2023-01-01T10:30:04.172Z,99474.19
2023-01-01T10:32:36.896Z,99455.63
2023-01-01T10:35:16.298Z,99473.44
2023-01-01T10:37:46.642Z,99473.59
2023-01-01T10:40:23.490Z,99465.84
2023-01-01T10:42:56.343Z,99472.94
2023-01-01T10:45:34.207Z,99469.84
2023-01-01T10:48:16.263Z,99480.34
2023-01-01T10:50:52.863Z,99475.00
2023-01-01T10:53:34.872Z,99479.22
2023-01-01T10:56:14.871Z,99457.75
2023-01-01T10:58:47.130Z,99466.53
2023-01-01T11:01:24.155Z,99469.09
2023-01-01T11:04:00.602Z,99466.44
2023-01-01T11:06:34.326Z,99473.03
2023-01-01T11:09:07.232Z,99470.94
2023-01-01T11:11:45.852Z,99465.19
2023-01-01T11:14:23.438Z,99478.91
2023-01-01T11:16:53.253Z,99473.19
2023-01-01T11:19:26.807Z,99482.28
2023-01-01T11:21:56.585Z,99487.69
2023-01-01T11:24:28.610Z,99465.91
2023-01-01T11:27:16.254Z,99485.38
2023-01-01T11:29:45.923Z,99474.28
2023-01-01T11:32:21.756Z,99487.22
2023-01-01T11:34:56.989Z,99480.59
2023-01-01T11:37:33.476Z,99483.44
2023-01-01T11:40:04.584Z,99488.91
2023-01-01T11:42:38.913Z,99487.88
2023-01-01T11:45:16.890Z,99479.53
2023-01-01T11:47:47.672Z,99497.13
2023-01-01T11:50:26.250Z,99489.47
2023-01-01T11:52:58.345Z,99500.03
2023-01-01T11:55:42.275Z,99484.25
2023-01-01T11:58:22.040Z,99476.38
2023-01-01T12:01:01.028Z,99491.41
2023-01-01T12:03:36.502Z,99505.50
2023-01-01T12:06:11.919Z,99501.78
2023-01-01T12:08:45.012Z,99491.75
2023-01-01T12:11:22.530Z,99474.09
2023-01-01T12:14:00.734Z,99472.41
2023-01-01T12:16:43.334Z,99465.97
2023-01-01T12:19:19.669Z,99455.31
2023-01-01T12:21:53.029Z,99462.25
2023-01-01T12:24:23.544Z,99462.94
2023-01-01T12:27:10.980Z,99454.16
2023-01-01T12:30:07.504Z,99468.69
2023-01-01T12:32:55.399Z,99469.72
2023-01-01T12:35:38.132Z,99472.47
2023-01-01T12:38:20.389Z,99469.94
2023-01-01T12:40:58.258Z,99476.28
2023-01-01T12:43:40.090Z,99487.50
2023-01-01T12:46:27.388Z,99489.66
2023-01-01T12:49:23.252Z,99501.22
2023-01-01T12:52:02.636Z,99505.88
2023-01-01T12:55:02.403Z,99515.03
2023-01-01T12:57:38.225Z,99519.66
2023-01-01T13:00:16.305Z,99526.56
2023-01-01T13:02:52.988Z,99520.84
2023-01-01T13:05:26.837Z,99522.91
2023-01-01T13:08:02.841Z,99532.59
2023-01-01T13:10:36.925Z,99530.28
2023-01-01T13:13:07.499Z,99527.72
2023-01-01T13:15:55.243Z,99534.88
2023-01-01T13:18:33.365Z,99553.59
2023-01-01T13:21:08.895Z,99548.59
2023-01-01T13:23:45.693Z,99546.75
2023-01-01T13:26:37.196Z,99545.34
2023-01-01T13:29:47.234Z,99547.47
2023-01-01T13:32:18.443Z,99536.09
2023-01-01T13:35:20.575Z,99527.75
2023-01-01T13:37:51.026Z,99520.69
2023-01-01T13:40:53.177Z,99509.72
2023-01-01T13:43:35.057Z,99516.13
2023-01-01T13:46:14.935Z,99524.16
2023-01-01T13:49:09.301Z,99522.28
2023-01-01T13:52:08.532Z,99523.13
2023-01-01T13:54:59.013Z,99529.94
2023-01-01T13:58:05.056Z,99523.97
2023-01-01T14:00:47.988Z,99520.41
2023-01-01T14:03:20.825Z,99527.16
2023-01-01T14:05:57.067Z,99533.38
2023-01-01T14:08:34.614Z,99527.81
2023-01-01T14:11:05.523Z,99531.16
2023-01-01T14:13:43.401Z,99558.25
2023-01-01T14:16:16.077Z,99554.38
2023-01-01T14:18:48.377Z,99548.59
2023-01-01T14:21:20.027Z,99551.94
2023-01-01T14:23:55.459Z,99553.91
2023-01-01T14:26:28.227Z,99546.31
2023-01-01T14:28:58.990Z,99560.97
2023-01-01T14:31:31.792Z,99572.72
2023-01-01T14:34:02.466Z,99577.13
2023-01-01T14:36:33.900Z,99585.84
2023-01-01T14:39:06.218Z,99583.16
2023-01-01T14:41:37.680Z,99581.53
2023-01-01T14:44:10.050Z,99578.75
2023-01-01T14:46:43.134Z,99573.19
2023-01-01T14:49:17.388Z,99586.00
2023-01-01T14:51:51.414Z,99584.31
2023-01-01T14:54:27.059Z,99589.53
2023-01-01T14:56:56.975Z,99595.88
2023-01-01T14:59:29.693Z,99590.66
2023-01-01T15:02:04.330Z,99607.53
2023-01-01T15:04:33.995Z,99617.41
2023-01-01T15:07:04.065Z,99605.59
2023-01-01T15:09:36.828Z,99616.31
2023-01-01T15:12:06.834Z,99619.56
2023-01-01T15:14:41.075Z,99624.84
2023-01-01T15:17:12.384Z,99620.63
2023-01-01T15:19:44.156Z,99616.81
2023-01-01T15:22:17.900Z,99622.38
2023-01-01T15:24:51.958Z,99626.75
2023-01-01T15:27:26.695Z,99631.75
2023-01-01T15:29:57.147Z,99628.41
2023-01-01T15:32:29.196Z,99609.13
2023-01-01T15:35:00.366Z,99616.31
2023-01-01T15:37:35.716Z,99610.72
2023-01-01T15:40:37.126Z,99617.41
2023-01-01T15:43:23.605Z,99628.44
2023-01-01T15:45:59.333Z,99623.75
2023-01-01T15:48:37.872Z,99630.00
2023-01-01T15:51:15.220Z,99629.28
2023-01-01T15:53:51.928Z,99625.66
2023-01-01T15:56:26.509Z,99621.81
2023-01-01T15:59:03.823Z,99620.66
2023-01-01T16:01:41.102Z,99631.47
2023-01-01T16:04:13.689Z,99623.50
2023-01-01T16:06:47.983Z,99627.59
2023-01-01T16:09:19.187Z,99625.06
2023-01-01T16:11:54.934Z,99632.84
2023-01-01T16:14:24.728Z,99631.47
2023-01-01T16:17:00.691Z,99629.28
2023-01-01T16:19:32.041Z,99627.81
2023-01-01T16:22:01.804Z,99633.38
2023-01-01T16:24:31.642Z,99626.47
2023-01-01T16:27:03.751Z,99636.69
2023-01-01T16:29:33.367Z,99634.22
2023-01-01T16:32:03.040Z,99633.69
2023-01-01T16:34:32.610Z,99630.06
2023-01-01T16:37:02.162Z,99630.66
2023-01-01T16:39:31.715Z,99632.84
2023-01-01T16:42:03.814Z,99625.72
2023-01-01T16:44:33.376Z,99629.56
2023-01-01T16:47:02.906Z,99631.22
2023-01-01T16:49:32.501Z,99625.69
2023-01-01T16:52:02.046Z,99612.22
2023-01-01T16:54:31.778Z,99612.81
2023-01-01T16:57:03.906Z,99614.69
2023-01-01T16:59:33.503Z,99610.34
2023-01-01T17:02:03.117Z,99607.03
2023-01-01T17:04:32.943Z,99609.75
2023-01-01T17:07:02.463Z,99614.69
2023-01-01T17:09:31.993Z,99611.38
2023-01-01T17:12:04.161Z,99613.63
2023-01-01T17:14:33.757Z,99615.25
2023-01-01T17:17:03.350Z,99614.16
2023-01-01T17:19:32.961Z,99621.28
2023-01-01T17:22:04.561Z,99631.19
2023-01-01T17:24:34.637Z,99630.13
2023-01-01T17:27:06.797Z,99638.91
2023-01-01T17:29:36.338Z,99634.50
2023-01-01T17:32:06.036Z,99632.28
2023-01-01T17:34:35.599Z,99635.03
2023-01-01T17:37:05.177Z,99649.31
2023-01-01T17:39:34.877Z,99647.69
2023-01-01T17:42:07.243Z,99646.00
2023-01-01T17:44:37.137Z,99641.06
2023-01-01T17:47:06.704Z,99642.44
2023-01-01T17:49:36.312Z,99632.81
2023-01-01T17:52:05.989Z,99638.31
2023-01-01T17:54:35.572Z,99632.50
2023-01-01T17:57:07.778Z,99631.19
2023-01-01T17:59:37.464Z,99642.16
2023-01-01T18:02:09.107Z,99646.59
2023-01-01T18:04:39.028Z,99642.69
2023-01-01T18:07:08.726Z,99651.53
2023-01-01T18:09:38.579Z,99647.66
2023-01-01T18:12:11.199Z,99650.41
2023-01-01T18:14:41.661Z,99660.59
2023-01-01T18:17:11.221Z,99658.13
2023-01-01T18:19:41.085Z,99658.66
2023-01-01T18:22:10.653Z,99659.25
2023-01-01T18:24:43.163Z,99657.59
2023-01-01T18:27:15.338Z,99662.53
2023-01-01T18:29:45.135Z,99654.56
2023-01-01T18:32:14.807Z,99663.63
2023-01-01T18:34:44.353Z,99655.38
2023-01-01T18:37:13.952Z,99649.84
2023-01-01T18:39:44.283Z,99655.06
2023-01-01T18:42:37.878Z,99657.81
2023-01-01T18:45:17.365Z,99649.88
2023-01-01T18:47:47.285Z,99643.00
2023-01-01T18:50:25.772Z,99639.47
2023-01-01T18:52:57.233Z,99646.03
2023-01-01T18:55:28.127Z,99637.25
2023-01-01T18:58:04.496Z,99638.34
2023-01-01T19:00:37.181Z,99636.66
2023-01-01T19:03:14.105Z,99626.50
2023-01-01T19:05:44.931Z,99618.84
2023-01-01T19:08:17.368Z,99605.91
2023-01-01T19:10:48.968Z,99597.09
2023-01-01T19:13:23.823Z,99594.34
2023-01-01T19:15:56.527Z,99611.41
2023-01-01T19:18:31.520Z,99609.78
2023-01-01T19:21:05.480Z,99598.16
2023-01-01T19:23:35.094Z,99602.56
2023-01-01T19:26:06.650Z,99603.13
2023-01-01T19:28:49.545Z,99602.84
2023-01-01T19:31:19.088Z,99601.44
2023-01-01T19:33:48.951Z,99595.34
2023-01-01T19:36:18.789Z,99598.63
2023-01-01T19:38:48.432Z,99591.56
2023-01-01T19:41:17.993Z,99595.91
2023-01-01T19:43:50.187Z,99597.53
2023-01-01T19:46:19.802Z,99582.63
2023-01-01T19:48:49.466Z,99593.72
2023-01-01T19:51:19.236Z,99585.47
2023-01-01T19:53:48.841Z,99588.28
2023-01-01T19:56:18.835Z,99598.09
2023-01-01T19:58:51.535Z,99590.13
2023-01-01T20:01:21.233Z,99592.38
2023-01-01T20:03:55.867Z,99593.25
2023-01-01T20:06:26.354Z,99588.28
2023-01-01T20:08:56.861Z,99588.44
2023-01-01T20:11:29.687Z,99592.38
2023-01-01T20:14:02.569Z,99592.56
2023-01-01T20:16:33.687Z,99595.34
2023-01-01T20:19:03.283Z,99597.03
2023-01-01T20:21:45.365Z,99597.41
2023-01-01T20:24:17.352Z,99596.38
2023-01-01T20:26:47.210Z,99603.06
2023-01-01T20:29:22.306Z,99607.53
2023-01-01T20:31:53.634Z,99608.03
2023-01-01T20:34:24.275Z,99607.50
2023-01-01T20:37:06.819Z,99614.50
2023-01-01T20:39:39.372Z,99602.44
2023-01-01T20:42:09.004Z,99609.75
2023-01-01T20:44:43.279Z,99609.75
2023-01-01T20:47:13.543Z,99611.41
2023-01-01T20:49:43.788Z,99605.91
2023-01-01T20:52:13.480Z,99607.53
2023-01-01T20:54:43.276Z,99598.78
2023-01-01T20:57:12.826Z,99599.88
2023-01-01T20:59:44.925Z,99595.47
2023-01-01T21:02:16.065Z,99602.59
2023-01-01T21:04:45.713Z,99599.22
2023-01-01T21:07:15.739Z,99604.22
2023-01-01T21:09:45.420Z,99606.97
2023-01-01T21:12:15.070Z,99596.25
2023-01-01T21:14:47.172Z,99593.25
2023-01-01T21:17:23.188Z,99591.84
2023-01-01T21:19:54.675Z,99605.81
2023-01-01T21:22:24.277Z,99600.13
2023-01-01T21:25:01.648Z,99590.25
2023-01-01T21:27:40.895Z,99586.69
2023-01-01T21:30:15.556Z,99571.53
2023-01-01T21:32:46.803Z,99569.06
2023-01-01T21:35:24.103Z,99580.66
2023-01-01T21:37:56.785Z,99577.88
2023-01-01T21:40:41.928Z,99567.97
2023-01-01T21:43:32.191Z,99565.22
2023-01-01T21:46:18.085Z,99555.88
2023-01-01T21:48:57.117Z,99547.13
2023-01-01T21:51:29.094Z,99542.72
2023-01-01T21:54:13.088Z,99532.28
2023-01-01T21:56:44.466Z,99533.38
2023-01-01T21:59:29.274Z,99530.63
2023-01-01T22:02:19.842Z,99521.84
2023-01-01T22:04:50.938Z,99520.75
2023-01-01T22:10:19.660Z,99500.44
2023-01-01T22:12:49.765Z,99505.91
2023-01-01T22:15:41.339Z,99501.53
2023-01-01T22:18:24.473Z,99496.03
2023-01-01T22:20:54.480Z,99491.66
2023-01-01T22:23:48.268Z,99477.09
2023-01-01T22:26:21.571Z,99472.69
2023-01-01T22:28:53.514Z,99459.53
2023-01-01T22:31:26.182Z,99465.81
2023-01-01T22:34:00.455Z,99457.59
2023-01-01T22:36:31.920Z,99452.59
2023-01-01T22:39:04.536Z,99441.63
2023-01-01T22:41:34.066Z,99441.06
2023-01-01T22:44:06.351Z,99440.53
2023-01-01T22:46:38.917Z,99439.47
2023-01-01T22:49:18.168Z,99419.81
2023-01-01T22:51:49.057Z,99415.59
2023-01-01T22:54:18.594Z,99427.22
2023-01-01T22:56:48.221Z,99428.31
2023-01-01T22:59:17.746Z,99425.94
2023-01-01T23:01:47.306Z,99441.34
2023-01-01T23:04:19.473Z,99425.94
2023-01-01T23:06:49.095Z,99424.03
2023-01-01T23:09:18.674Z,99412.53
2023-01-01T23:11:48.398Z,99414.78
2023-01-01T23:14:32.167Z,99411.50
2023-01-01T23:17:06.262Z,99410.34
2023-01-01T23:19:38.785Z,99413.91
2023-01-01T23:22:08.399Z,99405.91
2023-01-01T23:24:38.421Z,99413.56
2023-01-01T23:27:09.435Z,99413.66
2023-01-01T23:29:39.279Z,99410.31
2023-01-01T23:32:08.863Z,99405.44
2023-01-01T23:34:41.440Z,99400.53
2023-01-01T23:37:11.930Z,99407.34
2023-01-01T23:39:41.453Z,99409.81
2023-01-01T23:42:10.971Z,99415.31
2023-01-01T23:44:41.585Z,99408.94
2023-01-01T23:47:11.779Z,99401.06
2023-01-01T23:49:45.367Z,99399.91
2023-01-01T23:52:14.978Z,99404.06
2023-01-01T23:54:44.573Z,99401.06
2023-01-01T23:57:14.214Z,99408.72
2023-01-01T23:59:43.881Z,99392.78
